Time;durP1;ratioP1;P1;durP2;ratioP2;P2;SDS_P1;SDS_P2;PMS_P1;PMS_P2;Temp;Humidity;BMP_temperature;BMP_pressure;BME280_temperature;BME280_humidity;BME280_pressure;Samples;Min_cycle;Max_cycle;Signal;HPM_P1;HPM_P2
2021/05/17 00:00:37;;;;;;;;;;;;;;;11.97;73.40;96338.02;1716444;84;20177;-79
2021/05/17 00:03:07;;;;;;;;;;;;;;;11.98;73.17;96330.43;1722070;83;20156;-79
2021/05/17 00:05:34;;;;;;;;;;;;;;;12.02;73.11;96325.20;1716392;83;20172;-79
2021/05/17 00:08:00;;;;;;;;;;;;;;;12.05;73.21;96331.98;1702203;84;20153;-80
2021/05/17 00:10:27;;;;;;;;;;;;;;;12.11;73.72;96347.22;1708127;84;20172;-80
2021/05/17 00:12:53;;;;;;;;;;;;;;;12.18;73.88;96348.77;1716632;84;20137;-80
2021/05/17 00:15:21;;;;;;;;;;;;;;;12.22;73.78;96343.54;1708049;83;20507;-79
2021/05/17 00:17:47;;;;;;;;;;;;;;;12.26;73.28;96339.59;1698903;85;20164;-80
2021/05/17 00:20:17;;;;;;;;;;;;;;;12.29;73.26;96343.27;1698724;85;20190;-79
2021/05/17 00:22:44;;;;;;;;;;;;;;;12.32;72.43;96347.41;1698620;85;20152;-80
2021/05/17 00:25:12;;;;;;;;;;;;;;;12.29;73.04;96337.98;1698814;84;20156;-80
2021/05/17 00:27:38;;;;;;;;;;;;;;;12.33;73.36;96333.21;1736993;82;20156;-79
2021/05/17 00:30:06;;;;;;;;;;;;;;;12.34;72.46;96341.48;1698699;85;20509;-80
2021/05/17 00:32:32;;;;;;;;;;;;;;;12.36;73.17;96341.32;1698677;84;20164;-80
2021/05/17 00:34:59;;;;;;;;;;;;;;;12.43;73.17;96342.39;1699119;85;20148;-80
2021/05/17 00:37:25;;;;;;;;;;;;;;;12.45;72.96;96343.05;1698929;84;20236;-80
2021/05/17 00:39:51;;;;;;;;;;;;;;;12.48;72.74;96344.88;1702646;84;20172;-80
2021/05/17 00:42:18;;;;;;;;;;;;;;;12.50;72.99;96337.64;1715054;83;20171;-78
2021/05/17 00:44:45;;;;;;;;;;;;;;;12.55;72.62;96339.82;1703380;84;20188;-79
2021/05/17 00:47:14;;;;;;;;;;;;;;;12.53;72.70;96335.68;1716481;83;20165;-80
2021/05/17 00:49:42;;;;;;;;;;;;;;;12.54;72.60;96337.34;1716369;84;20165;-80
2021/05/17 00:52:10;;;;;;;;;;;;;;;12.57;72.88;96341.83;1716532;84;20168;-79
2021/05/17 00:54:37;;;;;;;;;;;;;;;12.60;72.86;96345.97;1716356;84;20164;-80
2021/05/17 00:57:05;;;;;;;;;;;;;;;12.61;72.83;96343.19;1716790;83;20227;-79
2021/05/17 00:59:32;;;;;;;;;;;;;;;12.59;72.79;96342.50;1749484;82;20158;-80
2021/05/17 01:01:59;;;;;;;;;;;;;;;12.61;72.71;96336.58;1739193;82;20584;-79
2021/05/17 01:04:28;;;;;;;;;;;;;;;12.64;72.65;96336.76;1723079;83;20168;-81
2021/05/17 01:06:55;;;;;;;;;;;;;;;12.65;72.78;96335.78;1746844;81;20152;-79
2021/05/17 01:09:25;;;;;;;;;;;;;;;12.65;72.70;96338.42;1720686;83;20168;-80
2021/05/17 01:11:54;;;;;;;;;;;;;;;12.64;72.47;96339.41;1720787;82;20164;-80
2021/05/17 01:14:23;;;;;;;;;;;;;;;12.60;72.77;96334.92;1720808;83;20136;-79
2021/05/17 01:16:53;;;;;;;;;;;;;;;12.60;72.70;96342.00;1722368;82;20238;-80
2021/05/17 01:19:30;;;;;;;;;;;;;;;12.55;72.98;96335.04;1729176;83;20227;-80
2021/05/17 01:21:57;;;;;;;;;;;;;;;12.53;73.01;96341.78;1734252;82;20182;-79
2021/05/17 01:24:23;;;;;;;;;;;;;;;12.48;72.87;96338.78;1729068;82;20163;-80
2021/05/17 01:26:50;;;;;;;;;;;;;;;12.40;72.85;96336.90;1728936;81;20155;-81
2021/05/17 01:29:17;;;;;;;;;;;;;;;12.32;73.04;96339.00;1729203;83;20144;-80
2021/05/17 01:31:43;;;;;;;;;;;;;;;12.25;73.07;96343.22;1729036;82;20175;-80
2021/05/17 01:34:13;;;;;;;;;;;;;;;12.17;73.11;96339.19;1729213;83;20485;-80
2021/05/17 01:36:40;;;;;;;;;;;;;;;12.09;73.25;96345.24;1706778;83;20159;-80
2021/05/17 01:39:07;;;;;;;;;;;;;;;12.02;73.15;96349.45;1730786;83;20151;-80
2021/05/17 01:41:34;;;;;;;;;;;;;;;11.96;73.47;96348.23;1721580;82;20254;-81
2021/05/17 01:44:02;;;;;;;;;;;;;;;11.92;73.36;96340.76;1721177;83;20172;-79
2021/05/17 01:46:31;;;;;;;;;;;;;;;11.85;73.58;96344.48;1721393;83;20204;-80
2021/05/17 01:49:01;;;;;;;;;;;;;;;11.78;73.66;96338.96;1728927;83;20159;-81
2021/05/17 01:51:28;;;;;;;;;;;;;;;11.74;73.43;96342.05;1729519;82;20216;-80
2021/05/17 01:53:58;;;;;;;;;;;;;;;11.67;73.27;96336.53;1729497;83;20140;-79
2021/05/17 01:56:26;;;;;;;;;;;;;;;11.60;73.82;96332.83;1729285;83;20164;-80
2021/05/17 01:58:54;;;;;;;;;;;;;;;11.55;73.59;96345.15;1734415;82;20181;-80
2021/05/17 02:01:25;;;;;;;;;;;;;;;11.48;74.51;96348.86;1733904;82;20170;-78
2021/05/17 02:03:51;;;;;;;;;;;;;;;11.41;73.78;96348.61;1760018;81;20204;-79
2021/05/17 02:06:18;;;;;;;;;;;;;;;11.35;73.38;96345.25;1745054;80;20155;-79
2021/05/17 02:08:50;;;;;;;;;;;;;;;11.27;73.91;96343.84;1733955;83;20171;-80
2021/05/17 02:11:19;;;;;;;;;;;;;;;11.20;74.07;96338.30;1736102;82;20159;-80
2021/05/17 02:13:50;;;;;;;;;;;;;;;11.13;74.01;96340.38;1700736;84;20153;-79
2021/05/17 02:16:17;;;;;;;;;;;;;;;11.03;74.27;96334.65;1748654;81;20493;-79
2021/05/17 02:18:45;;;;;;;;;;;;;;;10.93;74.56;96339.94;1765330;80;20156;-79
2021/05/17 02:21:13;;;;;;;;;;;;;;;10.84;74.69;96336.84;1764322;81;20160;-79
2021/05/17 02:23:40;;;;;;;;;;;;;;;10.74;74.87;96345.27;1764062;81;20195;-79
2021/05/17 02:26:07;;;;;;;;;;;;;;;10.66;74.87;96337.24;1764597;81;20576;-78
2021/05/17 02:28:39;;;;;;;;;;;;;;;10.57;74.83;96338.94;1763750;80;20236;-79
2021/05/17 02:31:06;;;;;;;;;;;;;;;10.49;74.56;96340.95;1763683;81;20192;-79
2021/05/17 02:33:33;;;;;;;;;;;;;;;10.40;75.48;96332.58;1764305;81;20144;-79
2021/05/17 02:36:00;;;;;;;;;;;;;;;10.33;74.37;96331.45;1748124;81;20236;-79
2021/05/17 02:38:27;;;;;;;;;;;;;;;10.24;76.21;96331.33;1739401;81;20615;-79
2021/05/17 02:40:53;;;;;;;;;;;;;;;10.18;74.93;96338.45;1764209;80;20240;-79
2021/05/17 02:43:22;;;;;;;;;;;;;;;10.12;74.95;96341.66;1763929;80;20477;-79
2021/05/17 02:45:51;;;;;;;;;;;;;;;10.05;78.09;96347.12;1763369;81;20188;-79
2021/05/17 02:48:27;;;;;;;;;;;;;;;10.00;75.16;96343.59;1764126;80;20188;-79
2021/05/17 02:50:48;;;;;;;;;;;;;;;9.95;76.15;96345.33;1721974;83;20174;-78
2021/05/17 02:53:37;;;;;;;;;;;;;;;9.90;75.19;96344.08;1725086;82;20257;-79
2021/05/17 02:56:09;;;;;;;;;;;;;;;9.85;76.12;96341.85;1687102;85;20187;-79
2021/05/17 02:58:38;;;;;;;;;;;;;;;9.82;75.33;96339.48;1684657;84;20191;-79
2021/05/17 03:01:10;;;;;;;;;;;;;;;9.80;75.63;96330.89;1745574;81;20164;-80
2021/05/17 03:03:48;;;;;;;;;;;;;;;9.80;75.42;96329.56;1729056;82;20168;-79
2021/05/17 03:06:24;;;;;;;;;;;;;;;9.81;75.26;96329.92;1781153;80;20227;-79
2021/05/17 03:08:59;;;;;;;;;;;;;;;9.82;75.39;96327.64;1782183;80;20163;-80
2021/05/17 03:11:29;;;;;;;;;;;;;;;9.86;75.35;96326.41;1781926;80;20184;-81
2021/05/17 03:13:58;;;;;;;;;;;;;;;9.91;75.41;96324.18;1789776;80;20167;-79
2021/05/17 03:16:26;;;;;;;;;;;;;;;9.96;75.64;96321.98;1739959;81;20163;-79
2021/05/17 03:18:55;;;;;;;;;;;;;;;10.02;75.57;96320.60;1741008;81;20625;-80
2021/05/17 03:21:24;;;;;;;;;;;;;;;10.10;75.61;96319.88;1753926;80;20169;-80
2021/05/17 03:23:51;;;;;;;;;;;;;;;10.15;75.79;96315.87;1752656;80;20175;-77
2021/05/17 03:26:19;;;;;;;;;;;;;;;10.23;75.69;96313.02;1736500;81;20150;-79
2021/05/17 03:28:45;;;;;;;;;;;;;;;10.29;75.56;96317.73;1736696;82;20153;-79
2021/05/17 03:31:11;;;;;;;;;;;;;;;10.35;75.68;96312.40;1754186;81;20151;-78
2021/05/17 03:33:40;;;;;;;;;;;;;;;10.41;75.39;96310.53;1759395;80;20512;-80
2021/05/17 03:36:06;;;;;;;;;;;;;;;10.48;75.24;96310.31;1739486;81;20527;-79
2021/05/17 03:38:32;;;;;;;;;;;;;;;10.49;74.47;96304.06;1780059;81;20515;-80
2021/05/17 03:40:58;;;;;;;;;;;;;;;10.52;74.40;96307.75;1780471;81;20228;-80
2021/05/17 03:43:25;;;;;;;;;;;;;;;10.54;74.54;96308.41;1739567;80;20167;-79
2021/05/17 03:45:52;;;;;;;;;;;;;;;10.59;74.46;96306.20;1735479;82;20166;-80
2021/05/17 03:48:19;;;;;;;;;;;;;;;10.65;74.22;96311.86;1735587;82;20170;-79
2021/05/17 03:50:45;;;;;;;;;;;;;;;10.68;74.13;96310.27;1735480;82;20162;-78
2021/05/17 03:53:11;;;;;;;;;;;;;;;10.73;74.08;96311.50;1763056;81;20500;-77
2021/05/17 03:55:37;;;;;;;;;;;;;;;10.85;74.15;96310.83;1745070;82;20503;-79
2021/05/17 03:58:03;;;;;;;;;;;;;;;11.18;74.05;96311.23;1743162;82;20139;-81
2021/05/17 04:00:31;;;;;;;;;;;;;;;11.64;74.08;96313.09;1726205;83;20184;-79
2021/05/17 04:03:00;;;;;;;;;;;;;;;12.23;72.42;96313.50;1725811;83;20182;-79
2021/05/17 04:05:42;;;;;;;;;;;;;;;12.87;72.76;96317.70;1723359;83;20155;-78
2021/05/17 04:13:27;;;;;;;;;;;;;;;14.61;68.08;96314.50;1721675;82;20176;-79
2021/05/17 04:15:54;;;;;;;;;;;;;;;15.36;68.23;96311.68;1725647;83;20187;-81
2021/05/17 04:18:21;;;;;;;;;;;;;;;15.93;65.61;96311.37;1723713;83;20207;-79
2021/05/17 04:20:49;;;;;;;;;;;;;;;16.39;62.84;96315.02;1717456;84;20168;-81
2021/05/17 04:23:20;;;;;;;;;;;;;;;16.92;60.55;96314.23;1720691;82;20153;-79
2021/05/17 04:25:47;;;;;;;;;;;;;;;17.41;59.49;96311.02;1720008;82;20191;-78
2021/05/17 04:28:13;;;;;;;;;;;;;;;17.91;61.14;96304.52;1721474;83;20176;-83
2021/05/17 04:30:39;;;;;;;;;;;;;;;18.37;56.12;96295.35;1721427;83;20188;-82
2021/05/17 04:33:05;;;;;;;;;;;;;;;18.71;58.36;96279.08;1716155;83;20148;-81
2021/05/17 04:35:32;;;;;;;;;;;;;;;19.15;58.13;96289.14;1717921;83;20172;-78
2021/05/17 04:37:58;;;;;;;;;;;;;;;19.53;55.90;96286.55;1717678;83;20155;-78
2021/05/17 04:40:24;;;;;;;;;;;;;;;20.03;50.21;96297.51;1746209;80;20168;-79
2021/05/17 04:42:51;;;;;;;;;;;;;;;20.50;46.30;96289.55;1715257;83;20224;-79
2021/05/17 04:45:19;;;;;;;;;;;;;;;21.01;45.20;96289.42;1716977;82;20151;-79
2021/05/17 04:47:45;;;;;;;;;;;;;;;21.46;44.79;96288.16;1719509;83;20255;-81
2021/05/17 04:50:12;;;;;;;;;;;;;;;21.93;50.53;96288.48;1715148;83;20133;-79
2021/05/17 04:52:38;;;;;;;;;;;;;;;22.26;48.16;96288.78;1718652;82;20165;-78
2021/05/17 04:55:05;;;;;;;;;;;;;;;22.65;49.15;96286.86;1721829;83;20152;-79
2021/05/17 04:57:31;;;;;;;;;;;;;;;23.01;42.25;96284.47;1718545;83;20220;-79
2021/05/17 04:59:57;;;;;;;;;;;;;;;23.22;38.60;96283.24;1719541;83;20163;-81
2021/05/17 05:02:23;;;;;;;;;;;;;;;23.45;40.79;96285.25;1726900;82;20163;-79
2021/05/17 05:04:49;;;;;;;;;;;;;;;23.81;40.20;96279.52;1727604;82;20199;-79
2021/05/17 05:07:15;;;;;;;;;;;;;;;24.20;38.59;96281.91;1730073;82;20181;-79
2021/05/17 05:09:41;;;;;;;;;;;;;;;24.54;37.86;96273.30;1720642;82;20549;-78
2021/05/17 05:12:08;;;;;;;;;;;;;;;24.80;35.84;96269.38;1724873;82;20191;-79
2021/05/17 05:14:34;;;;;;;;;;;;;;;25.02;45.17;96270.11;1722122;83;20183;-81
2021/05/17 05:17:00;;;;;;;;;;;;;;;25.21;36.26;96266.77;1723071;82;20167;-80
2021/05/17 05:19:26;;;;;;;;;;;;;;;25.31;34.40;96264.80;1725665;83;20152;-81
2021/05/17 05:21:53;;;;;;;;;;;;;;;25.53;38.81;96259.10;1725667;83;20164;-79
2021/05/17 05:24:19;;;;;;;;;;;;;;;25.68;33.29;96261.28;1722736;83;20176;-80
2021/05/17 05:29:23;;;;;;;;;;;;;;;26.32;32.37;96257.59;1723982;83;20219;-79
2021/05/17 05:34:11;;;;;;;;;;;;;;;26.79;31.22;96241.59;1742081;82;20494;-78
2021/05/17 05:36:38;;;;;;;;;;;;;;;26.98;31.82;96239.16;1729208;82;20149;-83
2021/05/17 05:39:05;;;;;;;;;;;;;;;26.89;32.25;96238.75;1712655;83;20465;-78
2021/05/17 05:41:31;;;;;;;;;;;;;;;26.98;31.13;96231.05;1704868;82;20163;-74
2021/05/17 05:43:57;;;;;;;;;;;;;;;27.15;31.80;96223.70;1695239;85;20138;-75
2021/05/17 05:46:24;;;;;;;;;;;;;;;27.37;31.77;96221.00;1696467;84;20209;-76
2021/05/17 05:48:50;;;;;;;;;;;;;;;27.49;29.71;96204.66;1712586;83;20204;-75
2021/05/17 05:51:22;;;;;;;;;;;;;;;27.76;31.49;96209.81;1711771;84;20191;-73
2021/05/17 05:53:49;;;;;;;;;;;;;;;27.85;29.52;96208.28;1695258;84;20168;-75
2021/05/17 05:56:16;;;;;;;;;;;;;;;28.09;29.14;96201.21;1703058;84;20168;-75
2021/05/17 05:58:44;;;;;;;;;;;;;;;28.33;28.92;96198.97;1701856;83;20150;-76
2021/05/17 06:01:10;;;;;;;;;;;;;;;27.98;32.80;96207.05;1668589;85;20528;-77
2021/05/17 06:03:37;;;;;;;;;;;;;;;27.57;30.54;96199.34;1660406;86;20458;-76
2021/05/17 06:06:04;;;;;;;;;;;;;;;27.76;28.95;96203.05;1686261;85;20210;-76
2021/05/17 06:08:31;;;;;;;;;;;;;;;28.10;30.87;96202.84;1685900;85;20658;-77
2021/05/17 06:10:57;;;;;;;;;;;;;;;28.22;29.83;96203.50;1686001;85;20518;-79
2021/05/17 06:13:24;;;;;;;;;;;;;;;28.25;29.45;96196.22;1686285;85;20238;-84
2021/05/17 06:15:51;;;;;;;;;;;;;;;28.27;31.31;96194.60;1686022;85;20166;-79
2021/05/17 06:18:17;;;;;;;;;;;;;;;28.36;29.34;96192.50;1686033;85;20194;-77
2021/05/17 06:20:44;;;;;;;;;;;;;;;28.54;29.05;96184.23;1686007;85;20249;-77
2021/05/17 06:23:13;;;;;;;;;;;;;;;28.45;29.18;96185.23;1686070;85;20300;-75
2021/05/17 06:25:38;;;;;;;;;;;;;;;28.74;30.93;96179.49;1685782;85;20186;-77
2021/05/17 06:28:05;;;;;;;;;;;;;;;28.89;28.29;96178.24;1685850;85;20170;-76
2021/05/17 06:30:41;;;;;;;;;;;;;;;28.82;29.67;96186.61;1685880;85;20257;-77
2021/05/17 06:33:01;;;;;;;;;;;;;;;28.91;29.78;96183.39;1685069;85;20507;-76
2021/05/17 06:35:30;;;;;;;;;;;;;;;28.72;31.77;96178.97;1708715;83;20244;-75
2021/05/17 06:37:56;;;;;;;;;;;;;;;28.56;28.51;96178.81;1710376;83;20172;-76
2021/05/17 06:40:22;;;;;;;;;;;;;;;28.49;29.43;96173.61;1710663;84;20172;-76
2021/05/17 06:42:48;;;;;;;;;;;;;;;28.23;29.44;96175.34;1710594;84;20457;-75
2021/05/17 06:45:15;;;;;;;;;;;;;;;28.00;30.04;96167.80;1710877;84;20152;-76
2021/05/17 06:47:42;;;;;;;;;;;;;;;27.18;31.84;96157.47;1710807;83;20580;-76
2021/05/17 06:50:10;;;;;;;;;;;;;;;26.22;30.91;96159.40;1711032;84;20165;-76
2021/05/17 06:52:36;;;;;;;;;;;;;;;26.15;33.10;96166.31;1711145;83;20185;-78
2021/05/17 06:55:10;;;;;;;;;;;;;;;25.28;30.25;96162.83;1710958;84;20240;-77
2021/05/17 07:00:12;;;;;;;;;;;;;;;24.42;34.15;96176.34;1710848;84;20529;-76
2021/05/17 07:02:38;;;;;;;;;;;;;;;23.65;33.62;96176.61;1710906;83;20173;-75
2021/05/17 07:05:05;;;;;;;;;;;;;;;23.11;35.18;96169.73;1710682;84;20176;-76
2021/05/17 07:11:32;;;;;;;;;;;;;;;22.61;36.13;96177.72;1710889;83;20228;-76
2021/05/17 07:12:44;;;;;;;;;;;;;;;20.87;39.89;96176.14;1711086;84;20176;-77
2021/05/17 07:15:12;;;;;;;;;;;;;;;20.59;40.35;96174.01;1711007;84;20142;-76
2021/05/17 07:17:38;;;;;;;;;;;;;;;20.22;42.97;96172.84;1710963;83;20156;-77
2021/05/17 07:20:05;;;;;;;;;;;;;;;20.01;43.91;96177.86;1710950;83;20188;-76
2021/05/17 07:25:15;;;;;;;;;;;;;;;19.70;45.89;96176.06;1710982;83;20177;-76
2021/05/17 07:27:41;;;;;;;;;;;;;;;19.46;46.21;96176.96;1711167;84;20169;-76
2021/05/17 07:30:08;;;;;;;;;;;;;;;19.06;47.07;96172.81;1710965;84;20164;-76
2021/05/17 07:32:34;;;;;;;;;;;;;;;19.39;47.78;96166.78;1711066;84;20256;-76
2021/05/17 07:35:01;;;;;;;;;;;;;;;20.05;45.89;96168.41;1711182;83;20161;-77
2021/05/17 07:37:28;;;;;;;;;;;;;;;20.78;44.01;96164.02;1711087;83;20214;-76
2021/05/17 07:39:54;;;;;;;;;;;;;;;21.23;42.90;96165.38;1711009;84;20157;-76
2021/05/17 07:42:20;;;;;;;;;;;;;;;21.31;41.99;96172.33;1711033;83;20253;-76
2021/05/17 07:44:46;;;;;;;;;;;;;;;21.26;42.43;96166.28;1711061;83;20493;-76
2021/05/17 07:47:12;;;;;;;;;;;;;;;21.15;43.25;96157.06;1711013;83;20144;-77
2021/05/17 07:49:42;;;;;;;;;;;;;;;21.38;42.25;96158.41;1711288;83;20168;-77
2021/05/17 07:52:10;;;;;;;;;;;;;;;21.35;40.40;96157.48;1711003;84;20568;-76
2021/05/17 07:54:37;;;;;;;;;;;;;;;21.72;40.33;96139.43;1703649;83;20495;-76
2021/05/17 07:57:06;;;;;;;;;;;;;;;22.30;38.47;96143.19;1689731;83;20518;-77
2021/05/17 07:59:33;;;;;;;;;;;;;;;22.74;38.00;96141.84;1692293;84;20163;-75
2021/05/17 08:02:00;;;;;;;;;;;;;;;22.76;37.67;96143.79;1693865;83;20222;-76
2021/05/17 08:04:26;;;;;;;;;;;;;;;22.93;38.00;96144.52;1687411;85;20511;-77
2021/05/17 08:06:53;;;;;;;;;;;;;;;23.01;37.85;96138.84;1698291;84;20188;-75
2021/05/17 08:09:19;;;;;;;;;;;;;;;23.19;37.72;96138.03;1701342;84;20161;-75
2021/05/17 08:11:45;;;;;;;;;;;;;;;23.38;38.29;96132.08;1716866;83;20252;-75
2021/05/17 08:14:12;;;;;;;;;;;;;;;23.48;37.32;96130.16;1710941;83;20558;-74
2021/05/17 08:16:39;;;;;;;;;;;;;;;23.23;37.31;96119.58;1719776;83;20479;-75
2021/05/17 08:19:05;;;;;;;;;;;;;;;22.65;38.04;96118.17;1719350;83;20197;-76
2021/05/17 08:21:31;;;;;;;;;;;;;;;22.40;38.23;96123.09;1719852;83;20142;-74
2021/05/17 08:23:58;;;;;;;;;;;;;;;21.93;38.88;96120.30;1708472;83;20164;-76
2021/05/17 08:26:25;;;;;;;;;;;;;;;21.82;40.03;96119.16;1706392;83;20157;-75
2021/05/17 08:28:52;;;;;;;;;;;;;;;21.93;39.49;96135.58;1696738;83;20154;-75
2021/05/17 08:31:19;;;;;;;;;;;;;;;21.71;39.70;96119.85;1719949;83;20166;-76
2021/05/17 08:33:45;;;;;;;;;;;;;;;21.53;40.27;96133.45;1719941;83;20174;-78
2021/05/17 08:36:12;;;;;;;;;;;;;;;21.34;39.86;96116.98;1719710;83;20165;-76
2021/05/17 08:38:38;;;;;;;;;;;;;;;21.45;40.42;96118.97;1708080;83;20166;-75
2021/05/17 08:41:06;;;;;;;;;;;;;;;21.62;39.69;96114.45;1723156;82;20194;-73
2021/05/17 08:43:37;;;;;;;;;;;;;;;21.46;39.76;96113.92;1741866;82;20200;-75
2021/05/17 08:46:04;;;;;;;;;;;;;;;21.49;40.33;96106.77;1741780;82;20155;-77
2021/05/17 08:48:30;;;;;;;;;;;;;;;21.49;39.74;96109.45;1739191;82;20514;-75
2021/05/17 08:50:56;;;;;;;;;;;;;;;21.32;40.48;96102.46;1722848;82;20178;-77
2021/05/17 08:53:22;;;;;;;;;;;;;;;21.26;40.77;96101.16;1702124;84;20169;-75
2021/05/17 08:55:48;;;;;;;;;;;;;;;21.46;40.64;96105.04;1698024;84;20939;-75
2021/05/17 08:58:20;;;;;;;;;;;;;;;21.41;40.13;96096.84;1700613;84;20580;-77
2021/05/17 09:00:46;;;;;;;;;;;;;;;21.39;40.06;96084.97;1688745;84;20509;-74
2021/05/17 09:03:12;;;;;;;;;;;;;;;21.45;39.78;96083.29;1680204;83;20152;-76
2021/05/17 09:05:39;;;;;;;;;;;;;;;21.52;40.06;96081.41;1657746;85;20198;-74
2021/05/17 09:08:05;;;;;;;;;;;;;;;21.52;40.20;96084.09;1676601;85;20230;-76
2021/05/17 09:10:37;;;;;;;;;;;;;;;21.55;39.53;96090.87;1667995;84;20484;-75
2021/05/17 09:13:07;;;;;;;;;;;;;;;21.42;40.07;96087.77;1676544;86;20171;-75
2021/05/17 09:15:50;;;;;;;;;;;;;;;21.48;40.30;96086.35;1668312;86;20215;-75
2021/05/17 09:18:22;;;;;;;;;;;;;;;21.38;39.15;96080.68;1677899;85;20205;-74
2021/05/17 09:20:50;;;;;;;;;;;;;;;21.02;39.84;96080.27;1676032;84;20159;-76
2021/05/17 09:23:24;;;;;;;;;;;;;;;20.59;40.69;96076.30;1678214;84;20167;-75
2021/05/17 09:26:09;;;;;;;;;;;;;;;20.65;41.26;96065.80;1677306;85;20182;-76
2021/05/17 09:28:41;;;;;;;;;;;;;;;20.87;40.85;96067.16;1677868;85;20150;-78
2021/05/17 09:31:17;;;;;;;;;;;;;;;20.75;39.93;96062.16;1649750;87;20141;-78
2021/05/17 09:33:50;;;;;;;;;;;;;;;20.80;40.69;96059.67;1654475;86;20171;-75
2021/05/17 09:36:37;;;;;;;;;;;;;;;20.64;39.88;96057.45;1678089;85;20163;-75
2021/05/17 09:39:07;;;;;;;;;;;;;;;20.47;40.71;96067.28;1673079;85;20175;-77
2021/05/17 09:41:44;;;;;;;;;;;;;;;20.13;40.88;96068.73;1663337;86;20180;-75
2021/05/17 09:44:15;;;;;;;;;;;;;;;20.18;41.37;96061.92;1670962;85;20174;-76
2021/05/17 09:47:01;;;;;;;;;;;;;;;20.28;40.92;96056.95;1666472;86;20154;-76
2021/05/17 09:49:38;;;;;;;;;;;;;;;20.33;41.14;96055.80;1663612;85;20179;-77
2021/05/17 09:52:12;;;;;;;;;;;;;;;20.34;41.09;96056.63;1676682;86;20162;-76
2021/05/17 09:54:57;;;;;;;;;;;;;;;20.43;41.67;96062.06;1677854;84;20506;-76
2021/05/17 09:57:32;;;;;;;;;;;;;;;20.50;41.47;96062.05;1677321;85;20226;-76
2021/05/17 10:00:13;;;;;;;;;;;;;;;20.30;40.47;96060.25;1678495;83;20152;-77
2021/05/17 10:02:47;;;;;;;;;;;;;;;20.27;42.05;96053.47;1721433;83;20176;-73
2021/05/17 10:05:16;;;;;;;;;;;;;;;19.93;42.14;96052.70;1704484;83;20156;-76
2021/05/17 10:07:43;;;;;;;;;;;;;;;19.85;42.38;96046.73;1705389;83;20176;-76
2021/05/17 10:10:10;;;;;;;;;;;;;;;19.73;42.50;96047.85;1716770;83;20219;-75
2021/05/17 10:12:37;;;;;;;;;;;;;;;19.68;42.19;96037.78;1716997;83;20236;-76
2021/05/17 10:15:06;;;;;;;;;;;;;;;19.86;42.54;96035.84;1700357;83;20168;-76
2021/05/17 10:17:35;;;;;;;;;;;;;;;19.94;42.21;96029.47;1696778;83;20261;-76
2021/05/17 10:20:04;;;;;;;;;;;;;;;19.85;42.34;96028.02;1714781;82;20235;-76
2021/05/17 10:22:30;;;;;;;;;;;;;;;19.69;42.83;96020.72;1722016;83;20144;-76
2021/05/17 10:24:58;;;;;;;;;;;;;;;19.83;43.00;96026.87;1711699;83;20212;-75
2021/05/17 10:27:27;;;;;;;;;;;;;;;19.85;42.88;96019.50;1713564;82;20195;-79
2021/05/17 10:30:03;;;;;;;;;;;;;;;19.88;43.08;96016.41;1716864;83;20552;-75
2021/05/17 10:32:50;;;;;;;;;;;;;;;19.89;43.45;96018.56;1710063;82;20147;-74
2021/05/17 10:35:19;;;;;;;;;;;;;;;19.83;42.94;96026.87;1705486;83;20171;-76
2021/05/17 10:37:47;;;;;;;;;;;;;;;19.73;42.52;96019.28;1707436;82;20560;-75
2021/05/17 10:40:33;;;;;;;;;;;;;;;19.76;42.41;96012.70;1708157;82;20551;-77
2021/05/17 10:43:10;;;;;;;;;;;;;;;19.71;41.92;96011.17;1716686;83;20504;-76
2021/05/17 10:48:31;;;;;;;;;;;;;;;19.89;42.25;95993.16;1714917;83;20513;-74
2021/05/17 10:51:16;;;;;;;;;;;;;;;20.05;41.92;95995.38;1743744;82;20146;-78
2021/05/17 10:53:55;;;;;;;;;;;;;;;20.21;41.87;95994.63;1707919;82;20216;-77
2021/05/17 10:56:50;;;;;;;;;;;;;;;19.93;41.42;95992.53;1708144;82;20524;-76
2021/05/17 11:01:59;;;;;;;;;;;;;;;19.92;41.97;95988.21;1718113;82;20223;-76
2021/05/17 11:04:36;;;;;;;;;;;;;;;20.02;43.90;95973.58;1720635;83;20561;-75
2021/05/17 11:07:15;;;;;;;;;;;;;;;20.09;41.53;95970.39;1720296;82;20592;-75
2021/05/17 11:09:50;;;;;;;;;;;;;;;20.15;41.96;95972.22;1742855;82;20154;-76
2021/05/17 11:12:29;;;;;;;;;;;;;;;20.24;41.84;95961.58;1722080;82;20131;-75
2021/05/17 11:15:08;;;;;;;;;;;;;;;20.39;41.68;95967.16;1728265;81;20160;-77
2021/05/17 11:18:01;;;;;;;;;;;;;;;20.39;39.64;95961.31;1714405;82;20200;-76
2021/05/17 11:20:47;;;;;;;;;;;;;;;20.63;40.79;95966.14;1719031;82;20485;-77
2021/05/17 11:23:26;;;;;;;;;;;;;;;20.39;40.33;95963.98;1708794;82;20507;-76
2021/05/17 11:26:02;;;;;;;;;;;;;;;20.21;40.56;95951.30;1722173;83;20544;-76
2021/05/17 11:28:38;;;;;;;;;;;;;;;20.13;40.95;95959.56;1706176;82;20993;-77
2021/05/17 11:31:13;;;;;;;;;;;;;;;20.15;41.50;95949.98;1720892;83;20508;-86
2021/05/17 11:33:56;;;;;;;;;;;;;;;20.24;41.39;95934.83;1702808;82;20513;-74
2021/05/17 11:36:29;;;;;;;;;;;;;;;20.40;41.43;95934.02;1734238;82;20154;-77
2021/05/17 11:39:24;;;;;;;;;;;;;;;20.58;41.36;95934.12;1744329;82;20173;-74
2021/05/17 11:42:11;;;;;;;;;;;;;;;20.83;40.62;95933.41;1706575;83;20173;-76
2021/05/17 11:44:56;;;;;;;;;;;;;;;21.07;38.27;95937.64;1713423;84;20219;-77
2021/05/17 11:47:31;;;;;;;;;;;;;;;21.18;38.35;95923.55;1713393;84;20518;-77
2021/05/17 11:49:56;;;;;;;;;;;;;;;21.41;39.93;95924.77;1711967;83;20164;-76
2021/05/17 11:52:24;;;;;;;;;;;;;;;21.56;39.29;95921.75;1706989;83;20505;-77
2021/05/17 11:54:53;;;;;;;;;;;;;;;21.61;37.45;95928.65;1706680;83;20150;-77
2021/05/17 11:57:21;;;;;;;;;;;;;;;21.75;38.54;95915.92;1703009;84;20226;-78
2021/05/17 11:59:49;;;;;;;;;;;;;;;21.67;37.46;95914.84;1695177;83;20141;-77
2021/05/17 12:02:16;;;;;;;;;;;;;;;21.52;37.11;95913.33;1681958;84;20171;-77
2021/05/17 12:04:43;;;;;;;;;;;;;;;21.52;37.73;95915.20;1682059;84;20163;-75
2021/05/17 12:07:17;;;;;;;;;;;;;;;21.44;38.03;95897.54;1683319;85;20506;-77
2021/05/17 12:09:48;;;;;;;;;;;;;;;21.45;38.11;95900.52;1684777;84;20167;-77
2021/05/17 12:12:18;;;;;;;;;;;;;;;21.48;38.22;95904.08;1669279;86;20169;-75
2021/05/17 12:14:49;;;;;;;;;;;;;;;21.38;37.98;95903.80;1677221;84;20162;-73
2021/05/17 12:17:22;;;;;;;;;;;;;;;21.30;38.41;95895.51;1679340;85;20253;-73
2021/05/17 12:19:52;;;;;;;;;;;;;;;21.36;38.92;95894.61;1654106;84;20197;-74
2021/05/17 12:22:23;;;;;;;;;;;;;;;21.48;39.21;95893.89;1668126;84;20159;-74
2021/05/17 12:24:50;;;;;;;;;;;;;;;21.62;39.22;95896.75;1681348;84;20202;-75
2021/05/17 12:27:18;;;;;;;;;;;;;;;21.76;38.91;95893.94;1682505;84;20537;-76
2021/05/17 12:30:05;;;;;;;;;;;;;;;21.83;38.94;95896.85;1684550;84;20159;-76
2021/05/17 12:32:40;;;;;;;;;;;;;;;21.73;39.04;95893.87;1683309;85;20487;-76
2021/05/17 12:35:18;;;;;;;;;;;;;;;21.74;38.95;95882.11;1683544;84;20167;-78
2021/05/17 12:37:47;;;;;;;;;;;;;;;21.88;38.52;95872.04;1683387;84;20231;-79
2021/05/17 12:40:29;;;;;;;;;;;;;;;21.81;38.72;95875.30;1683405;84;20162;-77
2021/05/17 12:43:10;;;;;;;;;;;;;;;21.82;39.28;95875.60;1683378;85;20531;-76
2021/05/17 12:45:42;;;;;;;;;;;;;;;21.93;39.16;95878.88;1683387;85;20171;-76
2021/05/17 12:48:30;;;;;;;;;;;;;;;21.99;38.10;95880.65;1683352;85;20155;-80
2021/05/17 12:50:54;;;;;;;;;;;;;;;21.91;37.94;95884.17;1705864;83;20492;-78
2021/05/17 12:53:26;;;;;;;;;;;;;;;21.97;39.07;95875.22;1667783;85;20189;-81
2021/05/17 12:55:55;;;;;;;;;;;;;;;22.11;38.56;95874.02;1683197;85;20497;-77
2021/05/17 12:58:39;;;;;;;;;;;;;;;22.27;38.14;95866.38;1721331;83;20176;-77
2021/05/17 13:01:10;;;;;;;;;;;;;;;22.37;38.81;95868.50;1695469;84;20243;-77
2021/05/17 13:03:42;;;;;;;;;;;;;;;22.45;37.46;95869.04;1747212;82;20142;-77
2021/05/17 13:06:10;;;;;;;;;;;;;;;22.17;36.82;95864.75;1731940;82;20148;-76
2021/05/17 13:08:40;;;;;;;;;;;;;;;22.09;37.20;95858.67;1714115;83;20163;-77
2021/05/17 13:11:11;;;;;;;;;;;;;;;21.84;37.76;95864.97;1714183;83;20148;-78
2021/05/17 13:14:09;;;;;;;;;;;;;;;22.02;38.62;95865.98;1714272;83;20156;-77
2021/05/17 13:16:38;;;;;;;;;;;;;;;21.92;37.69;95865.70;1714236;83;20160;-77
2021/05/17 13:25:29;;;;;;;;;;;;;;;21.89;37.96;95849.55;1714466;83;20173;-77
2021/05/17 13:30:47;;;;;;;;;;;;;;;22.00;38.03;95846.61;1713980;84;20441;-81
2021/05/17 13:33:24;;;;;;;;;;;;;;;22.03;37.41;95848.85;1713926;83;20156;-77